Résultats

Cross du Griffon : poussines filles:1.020KM. Édition 2012.

1 Km
11/11/2012 à 00:00:00 - ()
84 arrivant(e)s.


 
Les autres classements de cet évènement




Place▲ Temps Dossard Nom Prenom Categ #Categ Sexe #Sexe ClubVit Moy Diplôme Partager
1 00:03:34 1542 IVARS LEA POF 1 F 1 VITROLLES TRIATHLON17.16
2 00:03:37 989 HAUDICOT MAELYS POF 2 F 2 PENITENTS ENDURANCE16.92
3 00:03:38 327 SILVESTRE LUCIE POF 3 F 3 AMICALE DES PENNES MIRABEAU16.84
4 00:03:40 312 LAURENCE CARLA POF 4 F 4 AMICALE DES PENNES MIRABEAU16.69
5 00:03:41 521 BELMONTE ALISSINA POF 5 F 5 ISTRES SPORTS ATHLE16.62
6 00:03:48 684 SACCOCCIO EMMA POF 6 F 6 MJC DE PLAN DE CUQUES9.90
7 00:03:48 1202 BLAISE RAPHAELLE POF 7 F 7 STADE OLYMPIQUE ARLESIEN9.90
8 00:03:49 325 SALINS MATHILDE POF 8 F 8 AMICALE DES PENNES MIRABEAU9.90
9 00:03:52 50 SOUISRI LINDA POF 9 F 9 AC MIRAMAS15.83
10 00:03:52 572 BOSCARIOL LILOU POF 10 F 10 MARTIGUES SPORT ATHLE15.83
11 00:03:54 1309 SAVORNIN KELLY POF 11 F 11 STADIUM CLUB MARIGNANAIS15.69
12 00:03:55 310 KERZHERO MATHILDE POF 12 F 12 AMICALE DES PENNES MIRABEAU15.63
13 00:03:57 1224 LUPI LAURINE POF 13 F 13 STADE OLYMPIQUE ARLESIEN15.49
14 00:03:58 338 ZIDANE CLAIRE POF 14 F 14 AMICALE DES PENNES MIRABEAU15.43
15 00:03:58 698 COUMES CLAIRE POF 15 F 15 OCC CABRIES CALAS15.43
16 00:03:59 1500 LE-FLANCHEC JULIE POF 16 F 16 VITROLLES SPORT ATHLETISME15.36
17 00:03:59 657 KEBAILI OCEANE POF 17 F 17 MJC DE PLAN DE CUQUES15.36
18 00:03:59 1253 BENOIT CHIARA POF 18 F 18 STADIUM CLUB MARIGNANAIS15.36
19 00:04:01 320 ORIO EMELINE POF 19 F 19 AMICALE DES PENNES MIRABEAU15.24
20 00:04:01 252 SABASSIER IONNA POF 20 F 20 ACS/PELICAN ATHLE15.24
21 00:04:02 1225 LUPPI EMA POF 21 F 21 STADE OLYMPIQUE ARLESIEN15.17
22 00:04:04 915 RIAHI SAWSEN POF 22 F 22 OM ATHLETISME9.90
23 00:04:07 219 BOUSQUET JULIE POF 23 F 23 ACS/PELICAN ATHLE14.87
24 00:04:08 448 DI-LUCCI AUDREY POF 24 F 24 E P MANOSQUE ATHLETISME14.81
25 00:04:10 1351 JAMMOT LINA POF 25 F 25 U.A.V.H.14.69
26 00:04:11 165 TAIEB LAURA POF 26 F 26 AC SALON14.63
27 00:04:12 397 GERLIER DORIANNE POF 27 F 27 CSP PERTUIS14.57
28 00:04:12 373 ALLAIS JULIA BEF 1 F 28 CSP PERTUIS14.57
29 00:04:13 404 LAPANJE LORETTE POF 28 F 29 CSP PERTUIS14.51
30 00:04:13 314 MARICHEZ CHLOE POF 29 F 30 AMICALE DES PENNES MIRABEAU14.51
31 00:04:14 316 NATALONI EMMA POF 30 F 31 AMICALE DES PENNES MIRABEAU14.46
32 00:04:14 303 FRANTZ LAURIE POF 31 F 32 AMICALE DES PENNES MIRABEAU14.46
33 00:04:14 115 LAMALAM INES POF 32 F 33 AC SALON14.46
34 00:04:14 1469 CALAS ROMANE POF 33 F 34 VITROLLES SPORT ATHLETISME14.46
35 00:04:15 616 SANTUCCI MARINE POF 34 F 35 MARTIGUES SPORT ATHLE14.40
36 00:04:15 204 ROBET LAURIANE POF 35 F 36 ACP MARSEILLE14.40
37 00:04:15 882 MAURIN ELISA POF 36 F 37 OM ATHLETISME14.40
38 00:04:16 1216 ECHAITI CHAIMA POF 37 F 38 STADE OLYMPIQUE ARLESIEN14.34
39 00:04:16 1257 CABRERA AMBRE POF 38 F 39 STADIUM CLUB MARIGNANAIS14.34
40 00:04:17 216 BAILLEUX PAULINE POF 39 F 40 ACS/PELICAN ATHLE14.29
41 00:04:17 1053 BORDERIE PAULINE POF 40 F 41 SCO MARSEILLE ATHLETISME14.29
42 00:04:18 1312 SPITALE CLARA POF 41 F 42 STADIUM CLUB MARIGNANAIS14.23
43 00:04:18 523 BRAISAZ CLARA POF 42 F 43 ISTRES SPORTS ATHLE14.23
44 00:04:19 128 MARCOTTI CHARLOTTE POF 43 F 44 AC SALON14.18
45 00:04:19 163 SORITA ERIA POF 44 F 45 AC SALON14.18
46 00:04:19 234 GIRAUD EVE POF 45 F 46 ACS/PELICAN ATHLE14.18
47 00:04:21 627 ALLIES THEANA POF 46 F 47 MJC DE PLAN DE CUQUES9.90
48 00:04:24 678 RANNOU LUCIE POF 47 F 48 MJC DE PLAN DE CUQUES13.91
49 00:04:24 1166 ROGANI CYNTHIA POF 48 F 49 SCO MARSEILLE ATHLETISME13.91
50 00:04:25 1267 FONTAINE JULIE POF 49 F 50 STADIUM CLUB MARIGNANAIS13.86
51 00:04:25 1406 KHEMAISSIA AIDA POF 50 F 51 USPEG MARSEILLE13.86
52 00:04:25 365 TANKOSIC EVA POF 51 F 52 BERRE SPORT ATHLETISME13.86
53 00:04:26 694 BOUDART ANDREA POF 52 F 53 OCC CABRIES CALAS13.80
54 00:04:26 1235 PIOCELLE LUNA POF 53 F 54 STADE OLYMPIQUE ARLESIEN13.80
55 00:04:29 550 QUENTIN AMELIE POF 54 F 55 ISTRES SPORTS ATHLE13.65
56 00:04:31 136 MAZARI JULIE POF 55 F 56 AC SALON13.55
57 00:04:32 1356 MARTINET EVA POF 56 F 57 U.A.V.H.13.50
58 00:04:32 628 ANSAS CORALIE POF 57 F 58 MJC DE PLAN DE CUQUES13.50
59 00:04:33 25 KNEBEL BLANDINE POF 58 F 59 AC MIRAMAS13.45
60 00:04:33 549 PEREZ JORIS POM 1 M 1 ISTRES SPORTS ATHLE13.45
61 00:04:35 1323 AIRAUDI CHLOE POF 59 F 60 U.A.V.H.13.35
62 00:04:36 590 FERROUIL CAPUCINE POF 60 F 61 MARTIGUES SPORT ATHLE13.30
63 00:04:37 597 LAMBERT ZOE POF 61 F 62 MARTIGUES SPORT ATHLE13.26
64 00:04:41 978 MOUTTE-RAVERA AMBRE POF 62 F 63 OMCA ATHLETISME9.90
65 00:04:42 1002 COTTREAU NOELIE POF 63 F 64 ROGNAC ATHLETIC CLUB9.90
66 00:04:43 530 FEKAIRI CHIRINE POF 64 F 65 ISTRES SPORTS ATHLE9.90
67 00:04:44 1016 JEHANNIN LUCIE POF 65 F 66 ROGNAC ATHLETIC CLUB9.90
68 00:04:46 453 GARRIGUES LAURA POF 66 F 67 E P MANOSQUE ATHLETISME9.90
69 00:04:54 713 VERAN THALIE POF 67 F 68 OCC CABRIES CALAS9.90
70 00:04:55 13 CROUAU CHARLEEN POF 68 F 69 AC MIRAMAS9.90
71 00:04:56 297 CHAMPIAU LISON POF 69 F 70 AMICALE DES PENNES MIRABEAU9.90
72 00:04:57 619 VIEIRA-FERNANDES LEA POF 70 F 71 MARTIGUES SPORT ATHLE9.90
73 00:05:00 561 YOUBI LINA POF 71 F 72 ISTRES SPORTS ATHLE9.90
74 00:05:01 84 DINTILHAC ELISA POF 72 F 73 AC SALON9.90
75 00:05:02 630 ARAUJO MAILY POF 73 F 74 MJC DE PLAN DE CUQUES9.90
76 00:05:04 6 BONNARD KAZYA POF 74 F 75 AC MIRAMAS9.90
77 00:05:04 1567 JOURDAIN JULIA POF 75 F 76 9.90
78 00:05:09 1344 FAGES STEFFI POF 76 F 77 U.A.V.H.9.90
79 00:05:15 1318 YOMBIYENI-CAMARA AISSATOU POF 77 F 78 STADIUM CLUB MARIGNANAIS9.90
80 00:05:21 429 AZUELOS SIMON EAM 1 M 2 E P MANOSQUE ATHLETISME9.90
81 00:05:37 845 HANINI LINA POF 78 F 79 OM ATHLETISME9.90
82 00:05:43 640 CANTAILLOUBE JULIE POF 79 F 80 MJC DE PLAN DE CUQUES9.90
83 00:05:48 251 RIBOT INES POF 80 F 81 ACS/PELICAN ATHLE9.90
84 00:06:12 1280 JAOUI MANON POF 81 F 82 STADIUM CLUB MARIGNANAIS9.90